Weather History for KFFM - February, 2014

Change the Weather History Date:

Friday, February 21, 2014

  Actual Average Record
Temperature  
Mean Temperature 4 °F -  
Max Temperature 10 °F 28 °F 48 °F (1961)
Min Temperature -2 °F 8 °F -19 °F (1968)
Degree Days  
Heating Degree Days 61    
Moisture  
Dew Point -2 °F    
Average Humidity 75    
Maximum Humidity 85    
Minimum Humidity 72    
Precipitation  
Precipitation 0.00 in - - ()
Sea Level Pressure  
Sea Level Pressure 29.68 in    
Wind  
Wind Speed 23 mph (NW)    
Max Wind Speed 29 mph    
Max Gust Speed 39 mph    
Visibility 6 miles    
Events Snow    
Averages and records for this station are not official NWS values.
T = Trace of Precipitation, MM = Missing Value Source: NWS Daily Summary

Daily Weather History Graph

Daily Weather History Graph

Search for Another Location

Airport or City:

Trip Planner

Search our weather history database for the weather conditions in past years. The results will help you decide how hot, cold, wet, or windy it might be!

Date:

Astronomy

Feb. 21, 2014 Rise Set
Actual Time 7:17 AM CST 5:59 PM CST
Civil Twilight 6:47 AM CST 6:29 PM CST
Nautical Twilight 6:12 AM CST 7:04 PM CST
Astronomical Twilight 5:37 AM CST 7:39 PM CST
Moon 12:15 AM CST (2/21) 10:19 AM CST (2/21)
Length of Visible Light 11h 42m
Length of Day
10h 41m
Waning Gibbous, 60% of the Moon is Illuminated
Feb 21
Waning Gibbous
Feb 22
Last Quarter
Mar 1
New
Mar 8
First Quarter
Mar 16
Full

Hourly Weather History & Observations

Time (CST) Temp. Windchill Dew Point Humidity Pressure Visibility Wind Dir Wind Speed Gust Speed Precip Events Conditions
12:13 AM 6.8 °F -15.5 °F 1.4 °F 79% 29.60 in 3.0 mi NNW 26.5 mph 31.1 mph N/A   Haze
12:33 AM 6.8 °F -13.8 °F -0.4 °F 72% 29.60 in 1.8 mi NNW 21.9 mph 39.1 mph N/A Snow Light Snow
12:53 AM 5.0 °F -18.3 °F -0.4 °F 78% 29.60 in 1.5 mi NNW 27.6 mph 36.8 mph N/A Snow Light Snow
1:13 AM 5.0 °F -17.9 °F -0.4 °F 78% 29.60 in 2.5 mi NNW 26.5 mph 35.7 mph N/A   Haze
1:33 AM 3.2 °F -20.3 °F -2.2 °F 78% 29.60 in 2.5 mi NNW 26.5 mph 38.0 mph N/A   Haze
1:53 AM 3.2 °F -19.9 °F -2.2 °F 78% 29.59 in 2.0 mi NNW 25.3 mph 35.7 mph N/A   Haze
2:13 AM 3.2 °F -21.1 °F -2.2 °F 78% 29.59 in 2.0 mi NNW 28.8 mph 36.8 mph N/A   Haze
2:33 AM 3.2 °F -19.5 °F -2.2 °F 78% 29.59 in 4.0 mi NNW 24.2 mph 28.8 mph N/A   Haze
2:53 AM 3.2 °F -18.6 °F -2.2 °F 78% 29.59 in 2.5 mi NNW 21.9 mph - N/A   Haze
3:13 AM 1.4 °F -22.7 °F -2.2 °F 85% 29.59 in 3.0 mi NNW 26.5 mph - N/A   Haze
3:33 AM 1.4 °F -22.3 °F -4.0 °F 78% 29.58 in 2.0 mi NNW 25.3 mph 34.5 mph N/A   Haze
3:53 AM 1.4 °F -22.7 °F -4.0 °F 78% 29.59 in 2.0 mi NW 26.5 mph 34.5 mph N/A   Haze
4:13 AM 1.4 °F -22.3 °F -4.0 °F 78% 29.59 in 2.5 mi NNW 25.3 mph 32.2 mph N/A   Haze
4:33 AM 1.4 °F -22.7 °F -5.8 °F 72% 29.60 in 4.0 mi NNW 26.5 mph 34.5 mph N/A   Haze
4:53 AM -0.4 °F -23.3 °F -5.8 °F 78% 29.61 in 4.0 mi NNW 21.9 mph 29.9 mph N/A   Haze
5:13 AM -0.4 °F -24.3 °F -5.8 °F 78% - 4.0 mi NW 24.2 mph 29.9 mph N/A   Haze
5:33 AM -0.4 °F -24.3 °F -5.8 °F 78% 29.61 in 3.0 mi NW 24.2 mph 32.2 mph N/A   Haze
5:53 AM -0.4 °F -23.8 °F -5.8 °F 78% 29.62 in 4.0 mi NW 23.0 mph - N/A   Haze
6:13 AM -0.4 °F -23.3 °F -7.6 °F 72% 29.61 in 4.0 mi NW 21.9 mph - N/A   Haze
6:33 AM -0.4 °F -22.8 °F -7.6 °F 72% 29.61 in 10.0 mi NW 20.7 mph 26.5 mph N/A   Mostly Cloudy
6:53 AM -2.2 °F -26.2 °F -7.6 °F 78% 29.62 in 5.0 mi NW 23.0 mph - N/A   Haze
7:13 AM -2.2 °F -27.1 °F -7.6 °F 78% 29.62 in 4.0 mi NW 25.3 mph - N/A   Haze
7:33 AM -2.2 °F -26.2 °F -7.6 °F 78% 29.63 in 7.0 mi NW 23.0 mph - N/A   Clear
7:53 AM -2.2 °F -25.7 °F -7.6 °F 78% 29.63 in 10.0 mi WNW 21.9 mph - N/A   Clear
8:13 AM -2.2 °F -26.7 °F -7.6 °F 78% 29.63 in 4.0 mi NW 24.2 mph 28.8 mph N/A   Haze
8:33 AM -0.4 °F -24.3 °F -7.6 °F 72% 29.63 in 4.0 mi WNW 24.2 mph 29.9 mph N/A   Haze
8:53 AM -0.4 °F -23.8 °F -7.6 °F 72% 29.63 in 5.0 mi WNW 23.0 mph 27.6 mph N/A   Haze
9:13 AM -0.4 °F -23.8 °F -5.8 °F 78% 29.64 in 4.0 mi NW 23.0 mph 28.8 mph N/A   Haze
9:33 AM 1.4 °F -22.3 °F -5.8 °F 72% 29.64 in 4.0 mi NW 25.3 mph - N/A   Haze
9:53 AM 1.4 °F -22.7 °F -5.8 °F 72% 29.65 in 3.0 mi NW 26.5 mph 33.4 mph N/A   Haze
10:13 AM 1.4 °F -22.7 °F -5.8 °F 72% 29.65 in 2.5 mi NW 26.5 mph - N/A   Haze
10:33 AM 1.4 °F -23.5 °F -5.8 °F 72% 29.65 in 1.5 mi NW 28.8 mph 34.5 mph N/A   Haze
10:53 AM 1.4 °F -21.9 °F -4.0 °F 78% 29.66 in 2.0 mi NW 24.2 mph 33.4 mph N/A   Haze
11:13 AM 3.2 °F -21.1 °F -4.0 °F 72% 29.65 in 1.2 mi NW 28.8 mph 32.2 mph N/A   Haze
11:33 AM 3.2 °F -19.5 °F -4.0 °F 72% 29.66 in 1.8 mi NW 24.2 mph - N/A   Haze
11:54 AM 3.2 °F -19.9 °F -2.2 °F 78% 29.66 in 1.2 mi NW 25.3 mph 33.4 mph N/A   Haze
12:13 PM 5.0 °F -17.1 °F -2.2 °F 72% 29.66 in 1.5 mi NW 24.2 mph - N/A   Haze
12:33 PM 6.8 °F -15.1 °F -0.4 °F 72% 29.66 in 1.8 mi NW 25.3 mph 28.8 mph N/A   Haze
12:54 PM 6.8 °F -15.1 °F -0.4 °F 72% 29.66 in 2.5 mi NW 25.3 mph - N/A   Haze
1:13 PM 6.8 °F -14.7 °F -0.4 °F 72% 29.66 in 2.5 mi NW 24.2 mph - N/A   Haze
1:33 PM 8.6 °F -13.1 °F 1.4 °F 73% 29.67 in 2.0 mi NW 26.5 mph 31.1 mph N/A   Haze
1:53 PM 8.6 °F -12.3 °F 1.4 °F 73% 29.67 in 2.0 mi NW 24.2 mph 29.9 mph N/A   Haze
2:13 PM 8.6 °F -13.4 °F 1.4 °F 73% 29.67 in 1.8 mi NW 27.6 mph 31.1 mph N/A   Haze
2:33 PM 8.6 °F -13.4 °F 1.4 °F 73% 29.68 in 2.5 mi NW 27.6 mph - N/A   Haze
2:53 PM 10.4 °F -10.3 °F 3.2 °F 73% 29.68 in 3.0 mi NW 25.3 mph 28.8 mph N/A   Haze
3:13 PM 10.4 °F -10.7 °F 3.2 °F 73% 29.68 in 5.0 mi WNW 26.5 mph 31.1 mph N/A   Haze
3:33 PM 10.4 °F -9.5 °F 3.2 °F 73% 29.70 in 10.0 mi NW 23.0 mph 26.5 mph N/A   Mostly Cloudy
3:53 PM 10.4 °F -10.3 °F 3.2 °F 73% 29.70 in 7.0 mi NW 25.3 mph - N/A   Scattered Clouds
4:13 PM 10.4 °F -8.2 °F 3.2 °F 73% 29.71 in 10.0 mi NW 19.6 mph - N/A   Scattered Clouds
4:33 PM 10.4 °F -9.1 °F 3.2 °F 73% 29.71 in 7.0 mi NW 21.9 mph 26.5 mph N/A   Mostly Cloudy
4:53 PM 10.4 °F -8.2 °F 3.2 °F 73% 29.72 in 10.0 mi NW 19.6 mph 26.5 mph N/A   Scattered Clouds
5:13 PM 10.4 °F -7.7 °F 3.2 °F 73% 29.72 in 10.0 mi NW 18.4 mph - N/A   Clear
5:33 PM 8.6 °F -10.0 °F 1.4 °F 73% 29.73 in 10.0 mi NW 18.4 mph - N/A   Clear
5:53 PM 8.6 °F -8.3 °F 1.4 °F 73% 29.74 in 10.0 mi NW 15.0 mph - N/A   Clear
6:13 PM 8.6 °F -7.7 °F 1.4 °F 73% 29.75 in 10.0 mi NW 13.8 mph - N/A   Clear
6:33 PM 6.8 °F -8.6 °F 1.4 °F 79% 29.76 in 10.0 mi NW 11.5 mph - N/A   Scattered Clouds
6:53 PM 6.8 °F -9.3 °F -0.4 °F 72% 29.76 in 10.0 mi NW 12.7 mph - N/A   Clear
7:13 PM 6.8 °F -9.3 °F -0.4 °F 72% 29.77 in 10.0 mi NW 12.7 mph - N/A   Clear
7:33 PM 6.8 °F -11.3 °F -0.4 °F 72% 29.78 in 10.0 mi NW 16.1 mph - N/A   Clear
7:53 PM 6.8 °F -10.0 °F -0.4 °F 72% 29.78 in 10.0 mi WNW 13.8 mph - N/A   Clear
8:13 PM 6.8 °F -10.7 °F -0.4 °F 72% 29.79 in 10.0 mi WNW 15.0 mph - N/A   Clear
8:33 PM 6.8 °F -11.3 °F -0.4 °F 72% 29.79 in 10.0 mi WNW 16.1 mph - N/A   Clear
8:53 PM 6.8 °F -11.8 °F -0.4 °F 72% 29.80 in 10.0 mi WNW 17.3 mph - N/A   Clear
9:13 PM 6.8 °F -12.4 °F -0.4 °F 72% 29.80 in 10.0 mi NW 18.4 mph - N/A   Clear
9:33 PM 5.0 °F -14.2 °F -2.2 °F 72% 29.81 in 10.0 mi NW 17.3 mph - N/A   Clear
9:53 PM 5.0 °F -15.2 °F -2.2 °F 72% 29.81 in 10.0 mi WNW 19.6 mph - N/A   Clear
10:13 PM 3.2 °F -17.6 °F -2.2 °F 78% 29.81 in 10.0 mi NW 19.6 mph - N/A   Clear
10:33 PM 3.2 °F -16.5 °F -2.2 °F 78% 29.82 in 10.0 mi NW 17.3 mph - N/A   Clear
10:53 PM 3.2 °F -15.9 °F -4.0 °F 72% 29.83 in 10.0 mi NW 16.1 mph - N/A   Clear
11:13 PM 1.4 °F -16.9 °F -4.0 °F 78% 29.84 in 10.0 mi NW 13.8 mph - N/A   Clear
11:33 PM 1.4 °F -16.1 °F -5.8 °F 72% 29.84 in 10.0 mi NW 12.7 mph - N/A   Clear
11:53 PM 1.4 °F -16.1 °F -5.8 °F 72% 29.84 in 10.0 mi NW 12.7 mph - N/A   Clear